17:47
Airports
Links
Donate
Help keep this website running!
PayPal
Bitcoin
METAR
ZHCC 191700Z 18003MPS 140V210 5000 BR NSC 04/03 Q1024 NOSIG
Current Weather Conditions at ZHCC
MVFR 17:00:00 19-02-18
Altimeter:30.24 hg
Temp:4.0°c 39°f
Dew point:3.0°c 37°f
Wind:6 knots, 6.9 mph, 3 m/s, from 180°
Visibility:3.11 statute miles
(CLR) Clear
No significant weather changes expected within 2 hours.
Past METAR reports
MVFR 16:00:00 19-02-18
Altimeter:30.24 hg
Temp:4.0°c 39°f
Dew point:2.0°c 36°f
Wind:4 knots, 4.6 mph, 2 m/s, from 170°
Visibility:3.11 statute miles
(CLR) Clear
No significant weather changes expected within 2 hours.
ZHCC 191600Z 17002MPS 150V220 5000 BR NSC 04/02 Q1024 NOSIG
MVFR 15:00:00 19-02-18
Altimeter:30.21 hg
Temp:4.0°c 39°f
Dew point:2.0°c 36°f
Wind:4 knots, 4.6 mph, 2 m/s, from 150°
Visibility:3.73 statute miles
(CLR) Clear
No significant weather changes expected within 2 hours.
ZHCC 191500Z 15002MPS 120V180 6000 NSC 04/02 Q1023 NOSIG
MVFR 14:00:00 19-02-18
Altimeter:30.21 hg
Temp:6.0°c 43°f
Dew point:2.0°c 36°f
Wind:4 knots, 4.6 mph, 2 m/s, from 160°
Visibility:3.73 statute miles
(CLR) Clear
No significant weather changes expected within 2 hours.
ZHCC 191400Z 16002MPS 120V180 6000 NSC 06/02 Q1023 NOSIG
MVFR 13:00:00 19-02-18
Altimeter:30.21 hg
Temp:6.0°c 43°f
Dew point:1.0°c 34°f
Wind:4 knots, 4.6 mph, 2 m/s, from 150°
Visibility:4.97 statute miles
(CLR) Clear
No significant weather changes expected within 2 hours.
ZHCC 191300Z 15002MPS 120V180 8000 NSC 06/01 Q1023 NOSIG
MVFR 12:00:00 19-02-18
Altimeter:30.18 hg
Temp:7.0°c 45°f
Dew point:-1.0°c 30°f
Wind:4 knots, 4.6 mph, 2 m/s, from 130°
Visibility:4.97 statute miles
(CLR) Clear
No significant weather changes expected within 2 hours.
ZHCC 191200Z 13002MPS 110V180 8000 NSC 07/M01 Q1022 NOSIG
TAF
TAF ZHCC 191504Z 1918/2018 15003MPS 4000 HZ NSC TX10/2007Z TN00/1922Z TEMPO 1920/1924 1600 BR
Forecast at ZHCC
18:00 19-02-18 to 18:00 20-02-18
HZ
Wind:6 Knots from 150°
Visibility:2.49 statute miles
NSC
TEMPO 20:00 19-02-18 to 00:00 20-02-18
BR
Visibility:0.99 statute miles